createdAt,value
2019-05-07T00:01:23.090Z,69.12
2019-05-07T00:03:53.599Z,68.80
2019-05-07T00:06:24.617Z,68.60
2019-05-07T00:08:55.362Z,68.59
2019-05-07T00:11:26.266Z,69.00
2019-05-07T00:13:57.312Z,69.28
2019-05-07T00:16:28.353Z,71.31
2019-05-07T00:18:59.312Z,71.47
2019-05-07T00:21:32.561Z,72.82
2019-05-07T00:24:02.625Z,72.46
2019-05-07T00:26:34.345Z,72.61
2019-05-07T00:29:04.991Z,72.76
2019-05-07T00:31:35.656Z,72.90
2019-05-07T00:34:06.651Z,73.40
2019-05-07T00:36:55.152Z,73.34
2019-05-07T00:39:27.793Z,73.82
2019-05-07T00:42:00.116Z,74.04
2019-05-07T00:44:32.804Z,74.63
2019-05-07T00:47:03.594Z,74.60
2019-05-07T00:49:34.584Z,74.23
2019-05-07T00:52:05.277Z,74.44
2019-05-07T00:54:36.232Z,74.96
2019-05-07T00:57:07.923Z,76.11
2019-05-07T00:59:39.145Z,75.46
2019-05-07T01:02:09.790Z,74.99
2019-05-07T01:04:42.280Z,74.92
2019-05-07T01:07:13.128Z,75.04
2019-05-07T01:09:44.182Z,75.37
2019-05-07T01:12:15.200Z,75.53
2019-05-07T01:14:46.920Z,75.47
2019-05-07T01:17:17.905Z,75.48
2019-05-07T01:19:48.938Z,75.76
2019-05-07T01:22:22.056Z,74.79
2019-05-07T01:24:53.809Z,74.93
2019-05-07T01:27:24.815Z,74.82
2019-05-07T01:29:55.858Z,74.59
2019-05-07T01:32:28.452Z,74.40
2019-05-07T01:35:05.003Z,75.16
2019-05-07T01:37:36.168Z,74.59
2019-05-07T01:40:07.565Z,74.97
2019-05-07T01:42:38.645Z,75.38
2019-05-07T01:45:12.933Z,75.20
2019-05-07T01:47:43.392Z,74.99
2019-05-07T01:50:14.966Z,75.04
2019-05-07T01:52:45.982Z,74.97
2019-05-07T01:55:17.096Z,75.30
2019-05-07T01:57:48.044Z,75.23
2019-05-07T02:00:22.273Z,75.58
2019-05-07T02:02:56.986Z,75.71
2019-05-07T02:05:34.651Z,75.70
2019-05-07T02:08:07.268Z,75.08
2019-05-07T02:10:42.870Z,76.18
2019-05-07T02:13:13.946Z,76.19
2019-05-07T02:15:57.442Z,76.24
2019-05-07T02:18:17.377Z,76.06
2019-05-07T02:20:48.023Z,76.76
2019-05-07T02:23:19.059Z,77.77
2019-05-07T02:25:50.051Z,76.76
2019-05-07T02:28:22.266Z,76.88
2019-05-07T02:30:53.662Z,77.16
2019-05-07T02:33:24.430Z,76.93
2019-05-07T02:35:55.154Z,77.05
2019-05-07T02:38:33.623Z,77.57
2019-05-07T02:41:04.317Z,77.79
2019-05-07T02:43:35.007Z,77.94
2019-05-07T02:46:26.097Z,77.28
2019-05-07T02:49:07.050Z,76.88
2019-05-07T02:51:39.353Z,77.92
2019-05-07T02:54:28.548Z,76.98
2019-05-07T02:56:59.211Z,77.17
2019-05-07T02:59:33.351Z,77.73
2019-05-07T03:02:06.056Z,77.80
2019-05-07T03:04:37.041Z,77.79
2019-05-07T03:07:08.045Z,77.74
2019-05-07T03:09:39.099Z,77.48
2019-05-07T03:12:12.955Z,77.64
2019-05-07T03:14:43.801Z,78.11
2019-05-07T03:17:15.273Z,77.94
2019-05-07T03:19:47.868Z,78.25
2019-05-07T03:22:22.877Z,78.08
2019-05-07T03:25:08.532Z,77.94
2019-05-07T03:27:39.531Z,78.26
2019-05-07T03:30:16.888Z,78.41
2019-05-07T03:32:48.680Z,78.71
2019-05-07T03:35:26.655Z,78.88
2019-05-07T03:37:54.990Z,78.77
2019-05-07T03:40:25.972Z,78.98
2019-05-07T03:42:56.661Z,78.97
2019-05-07T03:45:37.992Z,78.75
2019-05-07T03:48:16.072Z,78.41
2019-05-07T03:50:46.717Z,78.98
2019-05-07T03:53:17.392Z,78.44
2019-05-07T03:55:48.063Z,77.34
2019-05-07T03:58:19.042Z,76.99
2019-05-07T04:00:53.222Z,76.00
2019-05-07T04:03:24.355Z,76.24
2019-05-07T04:05:55.431Z,74.70
2019-05-07T04:08:26.370Z,75.16
2019-05-07T04:10:57.213Z,74.48
2019-05-07T04:13:28.239Z,74.37
2019-05-07T04:15:58.914Z,73.46
2019-05-07T04:18:32.640Z,73.15
2019-05-07T04:21:03.829Z,72.36
2019-05-07T04:23:35.266Z,72.25
2019-05-07T04:26:08.546Z,71.55
2019-05-07T04:28:56.970Z,71.60
2019-05-07T04:31:29.251Z,72.41
2019-05-07T04:34:03.626Z,71.44
2019-05-07T04:36:35.246Z,71.56
2019-05-07T04:39:08.822Z,71.64
2019-05-07T04:41:39.488Z,71.84
2019-05-07T04:44:13.722Z,70.68
2019-05-07T04:46:47.132Z,69.94
2019-05-07T04:49:15.560Z,70.03
2019-05-07T04:51:52.906Z,70.18
2019-05-07T04:54:23.843Z,70.43
2019-05-07T04:56:54.587Z,69.86
2019-05-07T04:59:25.762Z,70.13
2019-05-07T05:01:58.142Z,70.24
2019-05-07T05:04:33.966Z,70.10
2019-05-07T05:07:02.633Z,69.42
2019-05-07T05:09:33.870Z,69.65
2019-05-07T05:12:04.824Z,69.36
2019-05-07T05:14:36.587Z,69.10
2019-05-07T05:17:07.550Z,69.27
2019-05-07T05:19:39.480Z,69.82
2019-05-07T05:22:22.150Z,69.44
2019-05-07T05:25:12.898Z,68.94
2019-05-07T05:27:43.890Z,69.13
2019-05-07T05:30:16.964Z,69.02
2019-05-07T05:32:47.638Z,69.07
2019-05-07T05:35:18.738Z,67.39
2019-05-07T05:37:52.067Z,67.10
2019-05-07T05:40:23.532Z,67.85
2019-05-07T05:42:57.484Z,67.48
2019-05-07T05:45:29.995Z,67.09
2019-05-07T05:48:05.522Z,67.05
2019-05-07T05:50:34.767Z,66.81
2019-05-07T05:53:07.508Z,67.30
2019-05-07T05:55:39.650Z,67.67
2019-05-07T05:58:23.999Z,67.29
2019-05-07T06:01:13.115Z,67.31
2019-05-07T06:03:45.461Z,66.71
2019-05-07T06:06:27.634Z,66.62
2019-05-07T06:09:15.788Z,66.54
2019-05-07T06:12:02.744Z,65.73
2019-05-07T06:14:35.570Z,65.84
2019-05-07T06:17:24.190Z,65.65
2019-05-07T06:20:02.982Z,65.13
2019-05-07T06:22:49.136Z,64.57
2019-05-07T06:25:24.876Z,64.32
2019-05-07T06:27:53.880Z,63.97
2019-05-07T06:30:24.715Z,64.05
2019-05-07T06:32:55.560Z,63.76
2019-05-07T06:35:26.298Z,63.23
2019-05-07T06:37:57.174Z,62.69
2019-05-07T06:40:33.417Z,62.57
2019-05-07T06:43:22.382Z,60.06
2019-05-07T06:46:02.428Z,60.43
2019-05-07T06:48:41.897Z,59.97
2019-05-07T06:51:05.739Z,59.57
2019-05-07T06:53:36.673Z,59.31
2019-05-07T06:56:07.725Z,59.43
2019-05-07T06:58:48.703Z,58.25
2019-05-07T07:01:22.821Z,57.60
2019-05-07T07:04:09.068Z,56.62
2019-05-07T07:06:48.814Z,56.31
2019-05-07T07:09:33.370Z,55.59
2019-05-07T07:12:06.103Z,56.32
2019-05-07T07:14:37.161Z,56.02
2019-05-07T07:17:07.848Z,56.57
2019-05-07T07:19:38.792Z,55.54
2019-05-07T07:22:09.757Z,55.10
2019-05-07T07:24:42.419Z,54.52
2019-05-07T07:27:13.552Z,54.07
2019-05-07T07:29:57.685Z,54.01
2019-05-07T07:32:31.760Z,54.61
2019-05-07T07:35:03.009Z,55.04
2019-05-07T07:37:38.010Z,55.10
2019-05-07T07:40:22.442Z,54.76
2019-05-07T07:42:53.241Z,54.14
2019-05-07T07:45:23.925Z,53.68
2019-05-07T07:47:54.874Z,54.98
2019-05-07T07:50:25.913Z,53.38
2019-05-07T07:52:57.650Z,53.41
2019-05-07T07:55:33.105Z,52.89
2019-05-07T07:58:22.159Z,53.23
2019-05-07T08:01:02.692Z,52.80
2019-05-07T08:03:33.399Z,52.42
2019-05-07T08:06:04.351Z,51.21
2019-05-07T08:08:35.029Z,50.47
2019-05-07T08:11:05.704Z,51.76
2019-05-07T08:13:36.949Z,53.46
2019-05-07T08:16:07.610Z,54.14
2019-05-07T08:18:38.666Z,53.90
2019-05-07T08:21:09.374Z,55.60
2019-05-07T08:23:42.262Z,55.91
2019-05-07T08:26:12.722Z,56.67
2019-05-07T08:28:43.526Z,57.79
2019-05-07T08:31:16.177Z,59.61
2019-05-07T08:33:57.553Z,59.95
2019-05-07T08:36:28.228Z,59.03
2019-05-07T08:38:59.016Z,58.64
2019-05-07T08:41:31.953Z,56.44
2019-05-07T08:44:11.783Z,55.15
2019-05-07T08:46:54.489Z,54.06
2019-05-07T08:49:35.942Z,53.77
2019-05-07T08:52:03.036Z,54.21
2019-05-07T08:54:34.102Z,53.30
2019-05-07T08:57:04.964Z,52.39
2019-05-07T08:59:37.354Z,52.60
2019-05-07T09:02:08.464Z,52.78
2019-05-07T09:04:39.139Z,52.73
2019-05-07T09:07:12.778Z,51.45
2019-05-07T09:09:44.577Z,50.67
2019-05-07T09:12:17.017Z,49.86
2019-05-07T09:14:48.353Z,48.99
2019-05-07T09:17:19.407Z,47.83
2019-05-07T09:19:52.243Z,48.44
2019-05-07T09:22:23.154Z,47.50
2019-05-07T09:24:54.014Z,49.39
2019-05-07T09:27:26.670Z,49.93
2019-05-07T09:30:12.638Z,51.12
2019-05-07T09:33:02.362Z,52.11
2019-05-07T09:35:39.782Z,50.38
2019-05-07T09:38:12.037Z,52.07
2019-05-07T09:40:42.971Z,52.61
2019-05-07T09:43:13.685Z,52.56
2019-05-07T09:45:44.631Z,52.88
2019-05-07T09:48:15.397Z,54.21
2019-05-07T09:50:46.067Z,54.71
2019-05-07T09:53:16.771Z,55.25
2019-05-07T09:55:47.446Z,55.83
2019-05-07T09:58:34.568Z,56.15
2019-05-07T10:00:51.229Z,55.78
2019-05-07T10:03:22.769Z,54.73
2019-05-07T10:05:53.710Z,54.99
2019-05-07T10:08:24.370Z,55.10
2019-05-07T10:10:55.673Z,55.52
2019-05-07T10:13:28.149Z,55.31
2019-05-07T10:15:59.816Z,53.72
2019-05-07T10:18:32.044Z,51.32
2019-05-07T10:21:03.107Z,50.96
2019-05-07T10:23:33.858Z,50.00
2019-05-07T10:26:05.604Z,49.13
2019-05-07T10:28:37.590Z,49.71
2019-05-07T10:31:08.268Z,49.29
2019-05-07T10:33:38.972Z,46.31
2019-05-07T10:36:09.977Z,45.88
2019-05-07T10:38:41.030Z,45.53
2019-05-07T10:41:12.430Z,44.73
2019-05-07T10:43:43.177Z,44.79
2019-05-07T10:46:21.315Z,46.73
2019-05-07T10:48:57.003Z,45.22
2019-05-07T10:51:28.023Z,45.13
2019-05-07T10:53:58.778Z,42.96
2019-05-07T10:56:29.586Z,43.74
2019-05-07T10:59:02.661Z,43.41
2019-05-07T11:01:35.968Z,45.08
2019-05-07T11:04:06.801Z,45.61
2019-05-07T11:06:38.946Z,46.60
2019-05-07T11:09:10.415Z,43.37
2019-05-07T11:11:42.359Z,44.43
2019-05-07T11:14:13.195Z,48.88
2019-05-07T11:16:52.171Z,48.26
2019-05-07T11:19:24.908Z,48.38
2019-05-07T11:21:56.651Z,46.43
2019-05-07T11:24:27.504Z,44.58
2019-05-07T11:26:58.445Z,42.86
2019-05-07T11:29:32.781Z,43.03
2019-05-07T11:32:06.271Z,43.24
2019-05-07T11:34:37.594Z,41.51
2019-05-07T11:37:08.495Z,40.75
2019-05-07T11:39:39.519Z,40.63
2019-05-07T11:42:14.742Z,40.06
2019-05-07T11:44:46.657Z,39.33
2019-05-07T11:47:22.542Z,39.63
2019-05-07T11:50:12.006Z,40.06
2019-05-07T11:52:48.873Z,38.67
2019-05-07T11:55:19.861Z,40.27
2019-05-07T11:57:51.829Z,38.96
2019-05-07T12:00:29.145Z,38.52
2019-05-07T12:03:02.116Z,40.71
2019-05-07T12:05:33.325Z,41.15
2019-05-07T12:08:04.349Z,42.10
2019-05-07T12:10:35.432Z,42.01
2019-05-07T12:13:06.218Z,42.73
2019-05-07T12:15:38.288Z,43.16
2019-05-07T12:18:09.364Z,42.30
2019-05-07T12:20:40.404Z,41.61
2019-05-07T12:23:12.143Z,42.54
2019-05-07T12:25:43.116Z,42.58
2019-05-07T12:28:17.104Z,42.70
2019-05-07T12:31:09.611Z,43.56
2019-05-07T12:33:46.405Z,44.40
2019-05-07T12:36:19.048Z,46.41
2019-05-07T12:38:49.816Z,45.27
2019-05-07T12:41:35.718Z,45.09
2019-05-07T12:44:08.418Z,45.95
2019-05-07T12:46:39.688Z,46.84
2019-05-07T12:49:11.982Z,47.26
2019-05-07T12:51:44.508Z,46.27
2019-05-07T12:54:22.822Z,46.04
2019-05-07T12:56:55.616Z,45.83
2019-05-07T12:59:27.646Z,45.77
2019-05-07T13:02:34.811Z,45.50
2019-05-07T13:04:52.179Z,42.78
2019-05-07T13:07:22.862Z,43.30
2019-05-07T13:09:54.641Z,43.46
2019-05-07T13:12:25.607Z,42.82
2019-05-07T13:14:57.264Z,42.33
2019-05-07T13:17:28.040Z,42.98
2019-05-07T13:20:01.588Z,42.11
2019-05-07T13:22:47.863Z,41.89
2019-05-07T13:25:28.265Z,42.74
2019-05-07T13:28:14.619Z,43.31
2019-05-07T13:30:57.968Z,41.46
2019-05-07T13:33:42.450Z,41.46
2019-05-07T13:36:13.881Z,41.84
2019-05-07T13:38:52.621Z,42.29
2019-05-07T13:41:25.507Z,41.74
2019-05-07T13:44:12.223Z,41.18
2019-05-07T13:46:45.034Z,42.31
2019-05-07T13:49:16.673Z,41.20
2019-05-07T13:52:02.546Z,41.05
2019-05-07T13:54:21.813Z,41.08
2019-05-07T13:56:52.664Z,42.95
2019-05-07T13:59:23.772Z,43.08
2019-05-07T14:02:04.488Z,41.70
2019-05-07T14:04:33.948Z,41.57
2019-05-07T14:07:07.387Z,40.52
2019-05-07T14:09:38.807Z,40.33
2019-05-07T14:12:12.142Z,40.14
2019-05-07T14:14:47.612Z,39.31
2019-05-07T14:17:25.284Z,40.28
2019-05-07T14:19:57.393Z,39.41
2019-05-07T14:22:29.151Z,39.49
2019-05-07T14:25:00.233Z,39.31
2019-05-07T14:27:32.156Z,39.82
2019-05-07T14:30:03.586Z,39.34
2019-05-07T14:32:39.086Z,39.29
2019-05-07T14:35:28.396Z,38.55
2019-05-07T14:38:01.015Z,38.43
2019-05-07T14:40:32.373Z,39.94
2019-05-07T14:43:04.906Z,38.79
2019-05-07T14:45:35.725Z,38.97
2019-05-07T14:48:06.735Z,39.67
2019-05-07T14:50:38.036Z,39.38
2019-05-07T14:53:09.305Z,38.99
2019-05-07T14:55:41.844Z,41.34
2019-05-07T14:58:14.053Z,40.55
2019-05-07T15:00:45.095Z,39.81
2019-05-07T15:03:16.138Z,39.00
2019-05-07T15:05:47.264Z,39.46
2019-05-07T15:08:17.957Z,38.75
2019-05-07T15:10:52.300Z,39.37
2019-05-07T15:13:23.584Z,40.17
2019-05-07T15:15:55.133Z,39.69
2019-05-07T15:18:27.457Z,39.04
2019-05-07T15:21:01.761Z,39.02
2019-05-07T15:23:36.187Z,37.93
2019-05-07T15:26:07.543Z,38.95
2019-05-07T15:28:41.785Z,35.72
2019-05-07T15:31:17.843Z,36.16
2019-05-07T15:33:48.967Z,35.63
2019-05-07T15:36:19.795Z,36.42
2019-05-07T15:38:52.163Z,36.51
2019-05-07T15:41:23.470Z,36.03
2019-05-07T15:43:55.421Z,35.24
2019-05-07T15:46:27.153Z,37.53
2019-05-07T15:48:58.424Z,36.83
2019-05-07T15:51:29.435Z,37.05
2019-05-07T15:54:03.399Z,38.25
2019-05-07T15:56:34.098Z,37.49
2019-05-07T15:59:05.509Z,38.21
2019-05-07T16:01:36.895Z,39.19
2019-05-07T16:04:19.114Z,39.02
2019-05-07T16:06:42.486Z,37.22
2019-05-07T16:09:16.943Z,37.34
2019-05-07T16:11:49.593Z,38.09
2019-05-07T16:14:26.793Z,38.02
2019-05-07T16:16:59.209Z,37.84
2019-05-07T16:19:32.139Z,38.45
2019-05-07T16:22:04.516Z,39.84
2019-05-07T16:24:35.513Z,39.62
2019-05-07T16:27:06.242Z,39.45
2019-05-07T16:29:36.934Z,38.33
2019-05-07T16:32:08.536Z,38.81
2019-05-07T16:34:39.579Z,40.09
2019-05-07T16:37:12.312Z,39.26
2019-05-07T16:39:43.411Z,39.66
2019-05-07T16:42:14.550Z,38.31
2019-05-07T16:44:45.340Z,38.66
2019-05-07T16:47:16.422Z,40.91
2019-05-07T16:49:47.696Z,39.75
2019-05-07T16:52:18.666Z,39.65
2019-05-07T16:54:49.343Z,40.90
2019-05-07T16:57:27.720Z,43.78
2019-05-07T17:00:02.909Z,44.50
2019-05-07T17:02:45.875Z,44.84
2019-05-07T17:05:19.696Z,44.45
2019-05-07T17:08:02.493Z,44.40
2019-05-07T17:10:34.765Z,44.35
2019-05-07T17:13:09.932Z,46.94
2019-05-07T17:15:59.369Z,47.46
2019-05-07T17:18:32.865Z,48.86
2019-05-07T17:21:07.703Z,49.46
2019-05-07T17:23:52.471Z,51.09
2019-05-07T17:26:26.853Z,50.99
2019-05-07T17:28:57.877Z,51.36
2019-05-07T17:31:28.749Z,51.76
2019-05-07T17:33:59.451Z,52.09
2019-05-07T17:36:32.845Z,52.39
2019-05-07T17:39:04.066Z,52.47
2019-05-07T17:41:36.907Z,53.30
2019-05-07T17:44:07.889Z,53.74
2019-05-07T17:46:38.839Z,54.51
2019-05-07T17:49:11.851Z,55.41
2019-05-07T17:51:45.607Z,56.09
2019-05-07T17:54:16.469Z,56.37
2019-05-07T17:56:47.136Z,56.00
2019-05-07T17:59:18.251Z,56.40
2019-05-07T18:01:53.408Z,56.22
2019-05-07T18:04:24.436Z,56.52
2019-05-07T18:06:55.175Z,56.64
2019-05-07T18:09:26.328Z,57.17
2019-05-07T18:11:57.054Z,56.91
2019-05-07T18:14:29.149Z,56.58
2019-05-07T18:17:01.997Z,56.12
2019-05-07T18:19:33.351Z,55.65
2019-05-07T18:22:04.275Z,55.96
2019-05-07T18:24:35.422Z,56.06
2019-05-07T18:27:08.364Z,55.99
2019-05-07T18:29:39.517Z,56.31
2019-05-07T18:32:12.406Z,57.03
2019-05-07T18:34:43.498Z,56.89
2019-05-07T18:37:14.643Z,56.45
2019-05-07T18:39:45.577Z,56.49
2019-05-07T18:42:16.404Z,56.49
2019-05-07T18:44:47.571Z,56.60
2019-05-07T18:47:18.715Z,56.94
2019-05-07T18:49:51.716Z,57.23
2019-05-07T18:52:26.050Z,56.62
2019-05-07T18:54:57.279Z,56.46
2019-05-07T18:57:28.274Z,56.83
2019-05-07T19:00:00.857Z,56.98
2019-05-07T19:02:32.033Z,56.28
2019-05-07T19:05:02.904Z,56.48
2019-05-07T19:07:33.713Z,56.83
2019-05-07T19:10:05.622Z,56.81
2019-05-07T19:12:37.836Z,56.79
2019-05-07T19:15:09.810Z,57.01
2019-05-07T19:17:42.656Z,57.16
2019-05-07T19:20:14.578Z,57.91
2019-05-07T19:22:45.349Z,58.16
2019-05-07T19:25:16.611Z,58.39
2019-05-07T19:27:47.730Z,58.75
2019-05-07T19:30:18.985Z,58.63
2019-05-07T19:32:52.028Z,58.70
2019-05-07T19:35:23.243Z,58.86
2019-05-07T19:37:54.927Z,58.93
2019-05-07T19:40:25.615Z,58.99
2019-05-07T19:42:57.320Z,59.28
2019-05-07T19:45:28.271Z,59.33
2019-05-07T19:47:59.021Z,59.45
2019-05-07T19:50:29.815Z,59.21
2019-05-07T19:53:02.905Z,59.27
2019-05-07T19:55:54.423Z,59.55
2019-05-07T19:58:25.542Z,60.16
2019-05-07T20:00:57.362Z,60.38
2019-05-07T20:03:29.639Z,60.17
2019-05-07T20:06:02.444Z,60.23
2019-05-07T20:08:32.804Z,60.39
2019-05-07T20:11:23.582Z,60.40
2019-05-07T20:13:54.609Z,60.69
2019-05-07T20:16:25.639Z,60.54
2019-05-07T20:18:56.663Z,60.56
2019-05-07T20:21:27.332Z,60.49
2019-05-07T20:23:58.145Z,60.66
2019-05-07T20:26:29.108Z,60.67
2019-05-07T20:28:59.859Z,60.69
2019-05-07T20:31:33.942Z,60.72
2019-05-07T20:34:04.979Z,60.73
2019-05-07T20:36:35.929Z,60.76
2019-05-07T20:39:08.810Z,61.04
2019-05-07T20:41:39.503Z,60.71
2019-05-07T20:44:11.923Z,61.15
2019-05-07T20:46:43.184Z,61.44
2019-05-07T20:49:14.394Z,61.41
2019-05-07T20:51:45.470Z,61.38
2019-05-07T20:54:27.125Z,61.75
2019-05-07T20:57:02.375Z,61.71
2019-05-07T20:59:33.608Z,61.69
2019-05-07T21:02:04.487Z,61.82
2019-05-07T21:04:35.534Z,61.77
2019-05-07T21:07:11.667Z,62.29
2019-05-07T21:09:42.351Z,62.43
2019-05-07T21:12:13.429Z,62.20
2019-05-07T21:14:44.467Z,62.36
2019-05-07T21:17:15.168Z,61.93
2019-05-07T21:19:47.239Z,62.17
2019-05-07T21:22:17.988Z,62.20
2019-05-07T21:24:49.935Z,62.15
2019-05-07T21:27:20.963Z,62.32
2019-05-07T21:29:52.745Z,61.73
2019-05-07T21:32:23.919Z,61.86
2019-05-07T21:34:54.896Z,61.84
2019-05-07T21:37:25.892Z,61.92
2019-05-07T21:39:56.574Z,62.36
2019-05-07T21:42:27.557Z,62.25
2019-05-07T21:44:58.501Z,62.21
2019-05-07T21:47:29.447Z,62.18
2019-05-07T21:50:02.536Z,62.11
2019-05-07T21:52:34.506Z,62.31
2019-05-07T21:55:17.853Z,62.45
2019-05-07T21:57:52.341Z,62.30
2019-05-07T22:00:32.585Z,62.17
2019-05-07T22:03:16.104Z,62.10
2019-05-07T22:05:47.722Z,62.63
2019-05-07T22:08:18.671Z,62.13
2019-05-07T22:10:49.934Z,61.90
2019-05-07T22:13:22.110Z,62.31
2019-05-07T22:15:55.199Z,62.82
2019-05-07T22:18:26.811Z,62.75
2019-05-07T22:20:57.838Z,62.88
2019-05-07T22:23:28.521Z,62.71
2019-05-07T22:26:16.453Z,63.47
2019-05-07T22:28:33.719Z,63.83
2019-05-07T22:31:04.564Z,64.34
2019-05-07T22:33:37.156Z,64.41
2019-05-07T22:36:08.087Z,64.04
2019-05-07T22:38:40.684Z,63.90
2019-05-07T22:41:12.979Z,64.12
2019-05-07T22:43:43.794Z,64.48
2019-05-07T22:46:14.885Z,64.75
2019-05-07T22:48:45.895Z,65.06
2019-05-07T22:51:16.561Z,65.55
2019-05-07T22:53:47.814Z,65.75
2019-05-07T22:56:31.948Z,65.80
2019-05-07T22:58:52.495Z,65.88
2019-05-07T23:01:23.311Z,65.80
2019-05-07T23:03:54.448Z,66.04
2019-05-07T23:06:25.357Z,65.84
2019-05-07T23:08:56.352Z,65.80
2019-05-07T23:11:27.423Z,65.72
2019-05-07T23:13:58.742Z,65.65
2019-05-07T23:16:29.784Z,65.43
2019-05-07T23:19:00.815Z,65.29
2019-05-07T23:21:32.066Z,65.11
2019-05-07T23:24:03.200Z,65.29
2019-05-07T23:26:47.267Z,65.29
2019-05-07T23:29:07.366Z,65.38
2019-05-07T23:31:38.050Z,65.28
2019-05-07T23:34:08.992Z,64.97
2019-05-07T23:36:42.096Z,65.14
2019-05-07T23:39:14.398Z,65.07
2019-05-07T23:41:46.759Z,64.93
2019-05-07T23:44:18.918Z,65.20
2019-05-07T23:46:51.855Z,65.11
2019-05-07T23:49:23.178Z,65.27
2019-05-07T23:51:54.623Z,65.45
2019-05-07T23:54:25.636Z,65.15
2019-05-07T23:57:05.775Z,65.19
2019-05-07T23:59:29.762Z,65.67
